createdAt,value
2022-10-17T00:01:31.321Z,100.00
2022-10-17T00:07:36.555Z,100.00
2022-10-17T00:10:40.039Z,100.00
2022-10-17T00:13:42.707Z,100.00
2022-10-17T00:16:46.694Z,100.00
2022-10-17T00:19:49.381Z,100.00
2022-10-17T00:22:52.176Z,100.00
2022-10-17T00:26:01.702Z,100.00
2022-10-17T00:29:04.436Z,100.00
2022-10-17T00:32:08.570Z,100.00
2022-10-17T00:35:11.382Z,100.00
2022-10-17T00:38:14.039Z,100.00
2022-10-17T00:41:17.734Z,100.00
2022-10-17T00:44:39.178Z,100.00
2022-10-17T00:47:43.893Z,100.00
2022-10-17T00:50:49.028Z,100.00
2022-10-17T00:53:52.515Z,100.00
2022-10-17T00:56:55.716Z,100.00
2022-10-17T01:00:00.322Z,100.00
2022-10-17T01:03:04.634Z,100.00
2022-10-17T01:06:07.259Z,100.00
2022-10-17T01:09:09.999Z,100.00
2022-10-17T01:12:14.493Z,100.00
2022-10-17T01:15:21.551Z,100.00
2022-10-17T01:18:30.956Z,100.00
2022-10-17T01:21:41.249Z,100.00
2022-10-17T01:24:53.071Z,100.00
2022-10-17T01:28:06.898Z,100.00
2022-10-17T01:31:13.279Z,100.00
2022-10-17T01:34:20.028Z,100.00
2022-10-17T01:37:28.321Z,100.00
2022-10-17T01:40:35.764Z,100.00
2022-10-17T01:43:41.110Z,100.00
2022-10-17T01:46:48.167Z,100.00
2022-10-17T01:49:52.493Z,100.00
2022-10-17T01:52:59.033Z,100.00
2022-10-17T01:56:04.850Z,100.00
2022-10-17T01:59:12.015Z,100.00
2022-10-17T02:02:17.681Z,100.00
2022-10-17T02:05:22.776Z,100.00
2022-10-17T02:08:29.165Z,100.00
2022-10-17T02:11:32.779Z,100.00
2022-10-17T02:14:42.417Z,100.00
2022-10-17T02:17:51.136Z,100.00
2022-10-17T02:20:57.910Z,100.00
2022-10-17T02:24:04.708Z,100.00
2022-10-17T02:27:13.018Z,100.00
2022-10-17T02:30:21.321Z,100.00
2022-10-17T02:33:28.937Z,100.00
2022-10-17T02:36:34.278Z,100.00
2022-10-17T02:39:38.186Z,100.00
2022-10-17T02:42:43.526Z,100.00
2022-10-17T02:45:47.246Z,100.00
2022-10-17T02:48:52.737Z,100.00
2022-10-17T02:52:00.183Z,100.00
2022-10-17T02:55:06.022Z,100.00
2022-10-17T02:58:12.427Z,100.00
2022-10-17T03:01:15.138Z,100.00
2022-10-17T03:04:19.551Z,100.00
2022-10-17T03:07:22.204Z,100.00
2022-10-17T03:10:25.002Z,100.00
2022-10-17T03:13:28.382Z,100.00
2022-10-17T03:16:31.280Z,100.00
2022-10-17T03:19:35.371Z,100.00
2022-10-17T03:22:38.045Z,100.00
2022-10-17T03:25:42.012Z,100.00
2022-10-17T03:28:44.723Z,100.00
2022-10-17T03:31:47.404Z,100.00
2022-10-17T03:34:51.472Z,100.00
2022-10-17T03:37:56.057Z,100.00
2022-10-17T03:40:59.930Z,100.00
2022-10-17T03:44:02.738Z,100.00
2022-10-17T03:47:08.095Z,100.00
2022-10-17T03:50:15.014Z,100.00
2022-10-17T03:53:18.632Z,100.00
2022-10-17T03:56:22.445Z,100.00
2022-10-17T03:59:32.656Z,100.00
2022-10-17T04:02:40.828Z,100.00
2022-10-17T04:05:46.817Z,100.00
2022-10-17T04:08:49.637Z,100.00
2022-10-17T04:12:02.859Z,100.00
2022-10-17T04:15:06.710Z,100.00
2022-10-17T04:18:09.585Z,100.00
2022-10-17T04:21:14.551Z,100.00
2022-10-17T04:24:17.328Z,100.00
2022-10-17T04:27:39.196Z,100.00
2022-10-17T04:30:45.136Z,100.00
2022-10-17T04:33:49.351Z,100.00
2022-10-17T04:36:53.478Z,100.00
2022-10-17T04:39:56.146Z,100.00
2022-10-17T04:42:58.864Z,100.00
2022-10-17T04:46:10.087Z,100.00
2022-10-17T04:49:12.805Z,100.00
2022-10-17T04:52:20.207Z,100.00
2022-10-17T04:55:25.296Z,100.00
2022-10-17T04:58:29.441Z,100.00
2022-10-17T05:01:32.136Z,100.00
2022-10-17T05:04:35.792Z,100.00
2022-10-17T05:07:41.893Z,100.00
2022-10-17T05:10:54.383Z,100.00
2022-10-17T05:13:57.954Z,100.00
2022-10-17T05:17:00.821Z,100.00
2022-10-17T05:20:04.454Z,100.00
2022-10-17T05:23:10.268Z,100.00
2022-10-17T05:26:16.510Z,100.00
2022-10-17T05:29:19.198Z,100.00
2022-10-17T05:32:27.580Z,100.00
2022-10-17T05:35:31.216Z,100.00
2022-10-17T05:38:35.415Z,100.00
2022-10-17T05:41:38.630Z,100.00
2022-10-17T05:44:41.813Z,100.00
2022-10-17T05:47:44.886Z,100.00
2022-10-17T05:50:48.758Z,100.00
2022-10-17T05:53:54.274Z,100.00
2022-10-17T05:57:00.774Z,100.00
2022-10-17T06:00:07.439Z,100.00
2022-10-17T06:03:19.281Z,100.00
2022-10-17T06:06:23.807Z,100.00
2022-10-17T06:09:29.331Z,100.00
2022-10-17T06:12:32.503Z,100.00
2022-10-17T06:15:35.651Z,100.00
2022-10-17T06:18:42.178Z,100.00
2022-10-17T06:21:44.962Z,100.00
2022-10-17T06:24:52.667Z,100.00
2022-10-17T06:27:55.632Z,100.00
2022-10-17T06:30:58.438Z,100.00
2022-10-17T06:34:01.126Z,100.00
2022-10-17T06:37:04.964Z,100.00
2022-10-17T06:40:12.291Z,100.00
2022-10-17T06:43:15.694Z,100.00
2022-10-17T06:46:32.231Z,100.00
2022-10-17T06:49:37.523Z,100.00
2022-10-17T06:52:53.869Z,100.00
2022-10-17T06:56:16.773Z,100.00
2022-10-17T06:59:30.282Z,100.00
2022-10-17T07:02:38.009Z,100.00
2022-10-17T07:05:40.650Z,100.00
2022-10-17T07:08:44.490Z,100.00
2022-10-17T07:11:48.975Z,100.00
2022-10-17T07:14:54.039Z,100.00
2022-10-17T07:17:57.512Z,100.00
2022-10-17T07:21:01.029Z,100.00
2022-10-17T07:24:03.819Z,100.00
2022-10-17T07:27:08.197Z,100.00
2022-10-17T07:30:11.669Z,100.00
2022-10-17T07:33:16.364Z,100.00
2022-10-17T07:36:20.209Z,100.00
2022-10-17T07:39:23.149Z,100.00
2022-10-17T07:42:27.981Z,100.00
2022-10-17T07:45:30.840Z,100.00
2022-10-17T07:48:33.888Z,100.00
2022-10-17T07:51:36.790Z,100.00
2022-10-17T07:54:39.506Z,100.00
2022-10-17T07:57:43.618Z,100.00
2022-10-17T08:00:48.434Z,100.00
2022-10-17T08:03:51.390Z,100.00
2022-10-17T08:07:00.658Z,100.00
2022-10-17T08:10:15.359Z,100.00
2022-10-17T08:13:19.330Z,100.00
2022-10-17T08:16:22.153Z,100.00
2022-10-17T08:19:24.772Z,100.00
2022-10-17T08:22:28.056Z,100.00
2022-10-17T08:25:30.928Z,100.00
2022-10-17T08:28:37.049Z,100.00
2022-10-17T08:31:39.722Z,100.00
2022-10-17T08:34:42.410Z,100.00
2022-10-17T08:37:45.058Z,100.00
2022-10-17T08:40:50.058Z,100.00
2022-10-17T08:44:01.646Z,100.00
2022-10-17T08:47:07.599Z,100.00
2022-10-17T08:50:13.880Z,100.00
2022-10-17T08:53:19.030Z,100.00
2022-10-17T08:56:44.173Z,100.00
2022-10-17T08:59:52.064Z,100.00
2022-10-17T09:03:00.557Z,100.00
2022-10-17T09:06:11.925Z,100.00
2022-10-17T09:09:22.539Z,100.00
2022-10-17T09:12:28.829Z,100.00
2022-10-17T09:15:49.235Z,94.29
2022-10-17T09:18:59.906Z,100.00
2022-10-17T09:22:04.505Z,96.91
2022-10-17T09:25:12.661Z,96.96
2022-10-17T09:28:17.719Z,94.81
2022-10-17T09:31:23.092Z,93.50
2022-10-17T09:34:28.448Z,91.97
2022-10-17T09:37:32.206Z,91.71
2022-10-17T09:40:35.998Z,90.33
2022-10-17T09:43:40.166Z,90.06
2022-10-17T09:46:44.767Z,89.76
2022-10-17T09:49:49.663Z,86.39
2022-10-17T09:52:53.333Z,87.88
2022-10-17T09:55:58.094Z,81.81
2022-10-17T09:59:00.930Z,82.48
2022-10-17T10:02:11.327Z,86.66
2022-10-17T10:05:18.008Z,85.10
2022-10-17T10:08:20.892Z,85.63
2022-10-17T10:11:24.599Z,85.87
2022-10-17T10:14:30.431Z,87.73
2022-10-17T10:17:38.414Z,86.45
2022-10-17T10:20:46.738Z,86.41
2022-10-17T10:24:04.317Z,85.61
2022-10-17T10:27:07.389Z,80.77
2022-10-17T10:30:18.372Z,80.67
2022-10-17T10:33:22.394Z,79.00
2022-10-17T10:36:26.514Z,80.99
2022-10-17T10:39:44.119Z,81.99
2022-10-17T10:42:48.571Z,82.73
2022-10-17T10:45:52.646Z,80.35
2022-10-17T10:48:58.488Z,79.69
2022-10-17T10:52:05.369Z,79.40
2022-10-17T10:55:17.120Z,77.34
2022-10-17T10:58:25.024Z,75.41
2022-10-17T11:01:31.722Z,73.74
2022-10-17T11:04:37.760Z,71.94
2022-10-17T11:07:46.423Z,71.39
2022-10-17T11:10:59.291Z,75.55
2022-10-17T11:14:05.514Z,70.80
2022-10-17T11:17:14.115Z,72.19
2022-10-17T11:20:21.485Z,71.13
2022-10-17T11:23:30.744Z,71.17
2022-10-17T11:26:36.892Z,68.64
2022-10-17T11:29:42.467Z,67.07
2022-10-17T11:32:48.003Z,69.96
2022-10-17T11:35:53.518Z,68.19
2022-10-17T11:39:01.819Z,69.26
2022-10-17T11:42:08.312Z,61.57
2022-10-17T11:45:16.383Z,61.27
2022-10-17T11:48:24.252Z,63.14
2022-10-17T11:54:56.760Z,64.22
2022-10-17T11:58:07.253Z,63.30
2022-10-17T12:01:16.797Z,57.98
2022-10-17T12:04:24.470Z,57.56
2022-10-17T12:07:31.378Z,59.07
2022-10-17T12:10:40.467Z,57.49
2022-10-17T12:13:54.502Z,61.37
2022-10-17T12:16:57.182Z,59.82
2022-10-17T12:20:25.217Z,60.81
2022-10-17T12:23:28.554Z,61.52
2022-10-17T12:26:32.799Z,61.19
2022-10-17T12:29:35.768Z,61.01
2022-10-17T12:33:00.031Z,58.18
2022-10-17T12:36:21.107Z,57.86
2022-10-17T12:39:44.680Z,60.07
2022-10-17T12:42:50.286Z,53.92
2022-10-17T12:45:53.810Z,57.51
2022-10-17T12:49:00.591Z,59.13
2022-10-17T12:52:27.183Z,58.17
2022-10-17T12:55:30.152Z,58.14
2022-10-17T12:58:35.263Z,56.57
2022-10-17T13:01:39.223Z,59.20
2022-10-17T13:04:42.056Z,54.37
2022-10-17T13:07:47.534Z,54.67
2022-10-17T13:10:52.539Z,56.43
2022-10-17T13:13:58.251Z,59.25
2022-10-17T13:17:02.741Z,64.33
2022-10-17T13:20:05.550Z,65.71
2022-10-17T13:23:22.799Z,67.84
2022-10-17T13:26:26.499Z,68.69
2022-10-17T13:29:32.096Z,69.08
2022-10-17T13:32:37.209Z,70.24
2022-10-17T13:35:59.390Z,70.86
2022-10-17T13:39:12.299Z,71.81
2022-10-17T13:42:18.890Z,72.01
2022-10-17T13:45:25.554Z,68.50
2022-10-17T13:48:29.509Z,69.57
2022-10-17T13:51:32.140Z,68.78
2022-10-17T13:54:40.435Z,66.64
2022-10-17T13:57:43.174Z,67.83
2022-10-17T14:00:49.145Z,68.70
2022-10-17T14:04:07.176Z,70.02
2022-10-17T14:07:22.287Z,71.95
2022-10-17T14:10:26.098Z,71.36
2022-10-17T14:13:30.158Z,73.77
2022-10-17T14:16:39.160Z,74.77
2022-10-17T14:19:42.080Z,71.90
2022-10-17T14:22:50.555Z,73.21
2022-10-17T14:26:06.419Z,74.38
2022-10-17T14:29:21.359Z,73.89
2022-10-17T14:32:25.474Z,73.81
2022-10-17T14:35:41.528Z,74.80
2022-10-17T14:38:49.027Z,76.70
2022-10-17T14:41:52.325Z,75.30
2022-10-17T14:44:55.776Z,77.00
2022-10-17T14:48:02.930Z,75.16
2022-10-17T14:51:09.512Z,67.98
2022-10-17T14:54:20.555Z,68.47
2022-10-17T14:57:25.429Z,69.07
2022-10-17T15:00:28.490Z,72.36
2022-10-17T15:03:32.548Z,71.75
2022-10-17T15:06:35.575Z,72.53
2022-10-17T15:09:38.200Z,74.12
2022-10-17T15:12:51.023Z,73.60
2022-10-17T15:16:01.637Z,77.82
2022-10-17T15:19:08.135Z,74.32
2022-10-17T15:22:10.826Z,76.47
2022-10-17T15:28:08.010Z,74.52
2022-10-17T15:31:13.877Z,76.98
2022-10-17T15:34:16.671Z,79.88
2022-10-17T15:37:22.446Z,82.03
2022-10-17T15:40:28.209Z,84.10
2022-10-17T15:43:32.392Z,84.52
2022-10-17T15:46:36.483Z,86.03
2022-10-17T15:49:39.273Z,86.96
2022-10-17T15:52:42.388Z,86.73
2022-10-17T15:55:45.365Z,86.58
2022-10-17T15:58:50.442Z,89.44
2022-10-17T16:01:53.597Z,88.65
2022-10-17T16:04:56.593Z,88.48
2022-10-17T16:07:59.473Z,93.93
2022-10-17T16:11:02.421Z,96.45
2022-10-17T16:14:09.072Z,100.00
2022-10-17T16:17:16.066Z,100.00
2022-10-17T16:20:19.675Z,100.00
2022-10-17T16:23:23.030Z,100.00
2022-10-17T16:26:26.174Z,100.00
2022-10-17T16:29:30.365Z,100.00
2022-10-17T16:32:33.474Z,100.00
2022-10-17T16:35:37.578Z,100.00
2022-10-17T16:38:40.834Z,100.00
2022-10-17T16:41:43.661Z,100.00
2022-10-17T16:44:48.663Z,100.00
2022-10-17T16:47:53.044Z,100.00
2022-10-17T16:50:55.881Z,100.00
2022-10-17T16:54:00.212Z,100.00
2022-10-17T16:57:03.105Z,100.00
2022-10-17T17:00:09.259Z,100.00
2022-10-17T17:03:12.190Z,100.00
2022-10-17T17:06:17.601Z,100.00
2022-10-17T17:09:20.584Z,100.00
2022-10-17T17:12:23.773Z,100.00
2022-10-17T17:15:28.459Z,100.00
2022-10-17T17:18:31.708Z,100.00
2022-10-17T17:21:36.166Z,100.00
2022-10-17T17:24:39.447Z,100.00
2022-10-17T17:27:42.592Z,100.00
2022-10-17T17:30:47.073Z,100.00
2022-10-17T17:33:51.186Z,100.00
2022-10-17T17:36:54.297Z,100.00
2022-10-17T17:39:58.556Z,100.00
2022-10-17T17:43:02.197Z,100.00
2022-10-17T17:46:07.570Z,100.00
2022-10-17T17:49:11.606Z,100.00
2022-10-17T17:52:14.580Z,100.00
2022-10-17T17:55:17.637Z,100.00
2022-10-17T17:58:20.755Z,100.00
2022-10-17T18:01:28.382Z,100.00
2022-10-17T18:04:31.411Z,100.00
2022-10-17T18:07:37.518Z,100.00
2022-10-17T18:10:40.483Z,100.00
2022-10-17T18:13:43.674Z,100.00
2022-10-17T18:16:48.215Z,100.00
2022-10-17T18:19:51.155Z,100.00
2022-10-17T18:22:54.112Z,100.00
2022-10-17T18:25:58.499Z,100.00
2022-10-17T18:29:01.545Z,100.00
2022-10-17T18:32:06.280Z,100.00
2022-10-17T18:35:10.030Z,100.00
2022-10-17T18:38:13.638Z,100.00
2022-10-17T18:41:18.736Z,100.00
2022-10-17T18:44:21.600Z,100.00
2022-10-17T18:47:25.981Z,100.00
2022-10-17T18:50:30.074Z,100.00
2022-10-17T18:53:36.011Z,100.00
2022-10-17T18:56:40.176Z,100.00
2022-10-17T18:59:43.811Z,100.00
2022-10-17T19:02:48.255Z,100.00
2022-10-17T19:05:53.559Z,100.00
2022-10-17T19:08:58.061Z,100.00
2022-10-17T19:12:02.332Z,100.00
2022-10-17T19:15:05.947Z,100.00
2022-10-17T19:18:10.376Z,100.00
2022-10-17T19:21:14.560Z,100.00
2022-10-17T19:24:20.902Z,100.00
2022-10-17T19:27:23.921Z,100.00
2022-10-17T19:30:26.844Z,100.00
2022-10-17T19:33:33.092Z,100.00
2022-10-17T19:36:36.616Z,100.00
2022-10-17T19:39:39.774Z,100.00
2022-10-17T19:42:42.850Z,100.00
2022-10-17T19:45:54.693Z,100.00
2022-10-17T19:48:59.089Z,100.00
2022-10-17T19:52:01.957Z,100.00
2022-10-17T19:55:05.178Z,100.00
2022-10-17T19:58:08.178Z,100.00
2022-10-17T20:01:12.126Z,100.00
2022-10-17T20:04:16.456Z,100.00
2022-10-17T20:07:19.276Z,100.00
2022-10-17T20:10:22.435Z,100.00
2022-10-17T20:13:25.324Z,100.00
2022-10-17T20:16:31.291Z,100.00
2022-10-17T20:19:35.630Z,100.00
2022-10-17T20:22:38.720Z,100.00
2022-10-17T20:25:41.620Z,100.00
2022-10-17T20:28:45.194Z,100.00
2022-10-17T20:31:49.109Z,100.00
2022-10-17T20:34:53.473Z,100.00
2022-10-17T20:37:56.375Z,100.00
2022-10-17T20:41:01.770Z,100.00
2022-10-17T20:44:06.836Z,100.00
2022-10-17T20:47:16.278Z,100.00
2022-10-17T20:50:25.301Z,100.00
2022-10-17T20:53:37.395Z,100.00
2022-10-17T20:56:41.146Z,100.00
2022-10-17T20:59:45.569Z,100.00
2022-10-17T21:02:48.462Z,100.00
2022-10-17T21:05:52.720Z,100.00
2022-10-17T21:08:56.599Z,100.00
2022-10-17T21:15:04.464Z,100.00
2022-10-17T21:18:07.295Z,100.00
2022-10-17T21:21:13.836Z,100.00
2022-10-17T21:24:20.431Z,100.00
2022-10-17T21:27:23.266Z,100.00
2022-10-17T21:30:26.100Z,100.00
2022-10-17T21:33:29.851Z,100.00
2022-10-17T21:36:34.097Z,100.00
2022-10-17T21:39:36.905Z,100.00
2022-10-17T21:42:39.828Z,100.00
2022-10-17T21:45:42.678Z,100.00
2022-10-17T21:48:46.932Z,100.00
2022-10-17T21:51:51.940Z,100.00
2022-10-17T21:54:54.739Z,100.00
2022-10-17T21:57:57.634Z,100.00
2022-10-17T22:01:05.592Z,100.00
2022-10-17T22:04:11.437Z,100.00
2022-10-17T22:07:15.611Z,100.00
2022-10-17T22:10:18.528Z,100.00
2022-10-17T22:13:21.359Z,100.00
2022-10-17T22:16:24.995Z,100.00
2022-10-17T22:19:28.373Z,100.00
2022-10-17T22:22:32.807Z,100.00
2022-10-17T22:25:35.697Z,100.00
2022-10-17T22:28:39.339Z,100.00
2022-10-17T22:31:42.598Z,100.00
2022-10-17T22:34:46.442Z,100.00
2022-10-17T22:37:51.321Z,100.00
2022-10-17T22:40:54.367Z,100.00
2022-10-17T22:43:57.331Z,100.00
2022-10-17T22:47:00.234Z,100.00
2022-10-17T22:50:03.094Z,100.00
2022-10-17T22:53:07.260Z,100.00
2022-10-17T22:56:12.224Z,100.00
2022-10-17T22:59:15.358Z,100.00
2022-10-17T23:02:18.181Z,100.00
2022-10-17T23:05:21.142Z,100.00
2022-10-17T23:08:25.833Z,100.00
2022-10-17T23:11:29.089Z,100.00
2022-10-17T23:14:31.941Z,100.00
2022-10-17T23:17:34.711Z,100.00
2022-10-17T23:20:38.759Z,100.00
2022-10-17T23:23:42.998Z,100.00
2022-10-17T23:26:45.828Z,100.00
2022-10-17T23:29:48.664Z,100.00
2022-10-17T23:32:51.556Z,100.00
2022-10-17T23:35:54.383Z,100.00
2022-10-17T23:38:58.812Z,100.00
2022-10-17T23:42:01.649Z,100.00
2022-10-17T23:45:05.467Z,100.00
2022-10-17T23:48:08.253Z,100.00
2022-10-17T23:51:12.147Z,100.00
2022-10-17T23:54:16.440Z,100.00
2022-10-17T23:57:19.228Z,100.00
